createdAt,value
2023-02-12T00:01:16.259Z,7.32
2023-02-12T00:03:43.077Z,7.78
2023-02-12T00:06:10.889Z,8.55
2023-02-12T00:08:38.407Z,7.93
2023-02-12T00:11:14.429Z,7.10
2023-02-12T00:13:41.750Z,7.93
2023-02-12T00:16:11.416Z,7.20
2023-02-12T00:18:38.002Z,8.55
2023-02-12T00:21:05.875Z,7.93
2023-02-12T00:23:32.728Z,8.55
2023-02-12T00:25:59.387Z,8.57
2023-02-12T00:28:26.485Z,7.95
2023-02-12T00:30:53.258Z,8.80
2023-02-12T00:33:19.951Z,7.82
2023-02-12T00:35:55.864Z,9.07
2023-02-12T00:38:22.874Z,8.85
2023-02-12T00:40:49.611Z,7.95
2023-02-12T00:43:16.141Z,8.85
2023-02-12T00:45:45.110Z,7.38
2023-02-12T00:48:12.214Z,8.93
2023-02-12T00:50:41.082Z,8.73
2023-02-12T00:53:08.291Z,8.10
2023-02-12T00:55:34.926Z,9.20
2023-02-12T00:58:01.518Z,8.52
2023-02-12T01:00:28.104Z,7.95
2023-02-12T01:02:55.057Z,8.65
2023-02-12T01:05:21.701Z,8.25
2023-02-12T01:07:52.861Z,8.70
2023-02-12T01:10:23.239Z,8.40
2023-02-12T01:12:50.641Z,8.50
2023-02-12T01:15:18.381Z,7.60
2023-02-12T01:17:45.025Z,8.25
2023-02-12T01:20:20.057Z,8.32
2023-02-12T01:25:14.216Z,8.45
2023-02-12T01:27:41.381Z,9.43
2023-02-12T01:30:11.607Z,8.63
2023-02-12T01:32:38.314Z,9.18
2023-02-12T01:35:05.582Z,8.60
2023-02-12T01:37:35.515Z,9.02
2023-02-12T01:40:02.072Z,8.07
2023-02-12T01:42:28.606Z,8.63
2023-02-12T01:45:13.524Z,8.63
2023-02-12T01:47:45.399Z,6.63
2023-02-12T01:50:15.368Z,8.75
2023-02-12T01:52:46.656Z,9.13
2023-02-12T01:55:15.030Z,10.05
2023-02-12T01:57:45.547Z,10.38
2023-02-12T02:00:19.301Z,9.00
2023-02-12T02:02:51.419Z,9.80
2023-02-12T02:05:31.200Z,9.95
2023-02-12T02:07:57.787Z,9.63
2023-02-12T02:10:24.336Z,9.25
2023-02-12T02:13:09.414Z,8.10
2023-02-12T02:15:37.809Z,9.35
2023-02-12T02:18:29.479Z,8.57
2023-02-12T02:21:25.936Z,9.45
2023-02-12T02:24:09.998Z,9.93
2023-02-12T02:27:14.992Z,9.25
2023-02-12T02:29:47.352Z,8.50
2023-02-12T02:32:21.980Z,8.90
2023-02-12T02:35:10.904Z,9.80
2023-02-12T02:37:45.739Z,9.88
2023-02-12T02:40:19.772Z,10.20
2023-02-12T02:42:52.027Z,9.18
2023-02-12T02:45:45.187Z,9.40
2023-02-12T02:48:22.461Z,9.75
2023-02-12T02:50:55.622Z,9.73
2023-02-12T02:53:29.907Z,10.07
2023-02-12T02:56:00.215Z,8.75
2023-02-12T02:58:36.545Z,9.93
2023-02-12T03:01:08.169Z,9.23
2023-02-12T03:03:58.641Z,10.27
2023-02-12T03:06:33.138Z,10.65
2023-02-12T03:09:11.714Z,9.85
2023-02-12T03:11:38.357Z,10.68
2023-02-12T03:14:12.806Z,9.63
2023-02-12T03:16:54.617Z,7.53
2023-02-12T03:19:24.860Z,9.70
2023-02-12T03:22:10.838Z,9.70
2023-02-12T03:24:55.848Z,9.43
2023-02-12T03:27:42.669Z,10.07
2023-02-12T03:30:09.724Z,9.13
2023-02-12T03:33:00.631Z,9.55
2023-02-12T03:35:32.939Z,9.18
2023-02-12T03:37:59.456Z,8.90
2023-02-12T03:40:35.204Z,10.93
2023-02-12T03:43:08.593Z,9.75
2023-02-12T03:45:44.448Z,11.85
2023-02-12T03:48:24.646Z,11.43
2023-02-12T03:51:03.468Z,11.05
2023-02-12T03:53:31.213Z,10.55
2023-02-12T03:56:07.945Z,11.60
2023-02-12T03:58:37.188Z,10.50
2023-02-12T04:01:04.513Z,12.25
2023-02-12T04:03:31.730Z,12.23
2023-02-12T04:05:58.255Z,11.15
2023-02-12T04:08:26.765Z,11.00
2023-02-12T04:11:12.194Z,12.40
2023-02-12T04:16:45.689Z,10.93
2023-02-12T04:19:17.290Z,11.68
2023-02-12T04:22:01.647Z,11.88
2023-02-12T04:24:31.221Z,12.35
2023-02-12T04:27:05.476Z,12.90
2023-02-12T04:29:50.481Z,9.25
2023-02-12T04:32:28.838Z,13.82
2023-02-12T04:35:02.835Z,12.82
2023-02-12T04:37:39.231Z,13.43
2023-02-12T04:40:09.773Z,13.18
2023-02-12T04:42:50.194Z,14.75
2023-02-12T04:45:24.769Z,14.77
2023-02-12T04:47:51.910Z,14.05
2023-02-12T04:50:18.970Z,13.52
2023-02-12T04:52:45.550Z,14.15
2023-02-12T04:55:12.549Z,14.88
2023-02-12T04:57:39.108Z,14.10
2023-02-12T05:00:07.948Z,13.65
2023-02-12T05:02:34.885Z,14.68
2023-02-12T05:05:02.033Z,13.98
2023-02-12T05:07:28.536Z,13.80
2023-02-12T05:09:55.415Z,14.65
2023-02-12T05:12:22.023Z,14.65
2023-02-12T05:14:48.554Z,14.13
2023-02-12T05:17:15.059Z,15.40
2023-02-12T05:19:41.764Z,15.00
2023-02-12T05:22:08.291Z,13.50
2023-02-12T05:24:34.868Z,13.38
2023-02-12T05:27:01.381Z,14.80
2023-02-12T05:29:27.904Z,15.93
2023-02-12T05:31:54.584Z,15.38
2023-02-12T05:34:21.132Z,15.93
2023-02-12T05:36:47.628Z,14.50
2023-02-12T05:39:14.224Z,16.90
2023-02-12T05:41:40.761Z,15.07
2023-02-12T05:44:07.273Z,16.48
2023-02-12T05:46:33.930Z,14.98
2023-02-12T05:49:00.535Z,14.07
2023-02-12T05:51:27.779Z,14.60
2023-02-12T05:54:03.655Z,15.35
2023-02-12T05:56:35.133Z,15.57
2023-02-12T05:59:04.456Z,14.23
2023-02-12T06:01:40.123Z,15.63
2023-02-12T06:04:10.561Z,14.82
2023-02-12T06:06:37.144Z,15.65
2023-02-12T06:09:03.771Z,14.10
2023-02-12T06:11:30.294Z,14.23
2023-02-12T06:13:56.824Z,15.13
2023-02-12T06:16:28.493Z,13.70
2023-02-12T06:18:56.551Z,16.08
2023-02-12T06:21:27.511Z,16.27
2023-02-12T06:23:54.329Z,16.05
2023-02-12T06:26:21.539Z,15.57
2023-02-12T06:28:48.514Z,16.17
2023-02-12T06:31:23.995Z,15.40
2023-02-12T06:33:52.119Z,16.33
2023-02-12T06:36:19.321Z,15.35
2023-02-12T06:38:45.976Z,13.52
2023-02-12T06:41:12.632Z,14.43
2023-02-12T06:43:39.614Z,15.35
2023-02-12T06:46:06.563Z,16.15
2023-02-12T06:48:33.633Z,15.07
2023-02-12T06:51:18.687Z,13.48
2023-02-12T06:53:45.489Z,15.32
2023-02-12T06:56:13.520Z,12.27
2023-02-12T06:58:41.887Z,14.57
2023-02-12T07:01:21.585Z,14.70
2023-02-12T07:03:50.539Z,14.45
2023-02-12T07:06:17.920Z,14.70
2023-02-12T07:08:44.780Z,13.90
2023-02-12T07:11:11.786Z,15.10
2023-02-12T07:13:40.272Z,14.95
2023-02-12T07:16:08.952Z,14.13
2023-02-12T07:18:36.349Z,14.45
2023-02-12T07:21:03.935Z,14.93
2023-02-12T07:23:30.616Z,14.35
2023-02-12T07:25:58.975Z,14.20
2023-02-12T07:28:26.147Z,13.90
2023-02-12T07:30:52.849Z,13.20
2023-02-12T07:33:19.818Z,13.93
2023-02-12T07:35:46.529Z,13.05
2023-02-12T07:38:13.044Z,13.32
2023-02-12T07:40:39.576Z,14.82
2023-02-12T07:43:06.305Z,15.60
2023-02-12T07:45:32.983Z,14.10
2023-02-12T07:47:59.568Z,14.25
2023-02-12T07:50:26.180Z,16.35
2023-02-12T07:52:52.755Z,14.50
2023-02-12T07:55:19.896Z,15.02
2023-02-12T07:57:46.435Z,14.10
2023-02-12T08:00:13.552Z,14.30
2023-02-12T08:02:40.785Z,14.40
2023-02-12T08:05:07.821Z,14.40
2023-02-12T08:07:34.462Z,14.23
2023-02-12T08:10:01.026Z,15.02
2023-02-12T08:12:27.529Z,13.93
2023-02-12T08:14:54.632Z,15.23
2023-02-12T08:17:21.214Z,14.82
2023-02-12T08:19:47.782Z,15.13
2023-02-12T08:22:14.388Z,15.38
2023-02-12T08:24:42.362Z,15.80
2023-02-12T08:27:08.960Z,15.20
2023-02-12T08:29:35.961Z,14.68
2023-02-12T08:32:04.149Z,15.07
2023-02-12T08:34:35.260Z,15.85
2023-02-12T08:37:04.227Z,15.23
2023-02-12T08:39:30.911Z,15.40
2023-02-12T08:41:59.558Z,15.82
2023-02-12T08:44:26.393Z,16.70
2023-02-12T08:46:53.308Z,15.27
2023-02-12T08:49:26.039Z,16.08
2023-02-12T08:51:54.705Z,16.30
2023-02-12T08:54:26.551Z,16.30
2023-02-12T08:57:02.231Z,13.73
2023-02-12T08:59:29.601Z,15.50
2023-02-12T09:01:56.201Z,15.48
2023-02-12T09:04:25.992Z,16.23
2023-02-12T09:06:53.199Z,15.70
2023-02-12T09:09:20.111Z,13.98
2023-02-12T09:11:47.537Z,14.18
2023-02-12T09:14:16.120Z,15.45
2023-02-12T09:16:43.015Z,15.27
2023-02-12T09:19:12.447Z,15.65
2023-02-12T09:21:39.058Z,14.70
2023-02-12T09:24:05.773Z,14.63
2023-02-12T09:26:32.396Z,15.00
2023-02-12T09:28:59.046Z,16.60
2023-02-12T09:31:28.712Z,15.25
2023-02-12T09:33:59.530Z,14.40
2023-02-12T09:36:26.601Z,15.60
2023-02-12T09:38:54.330Z,14.98
2023-02-12T09:41:23.968Z,14.75
2023-02-12T09:44:04.689Z,15.65
2023-02-12T09:46:54.355Z,14.10
2023-02-12T09:49:39.006Z,16.55
2023-02-12T09:52:10.775Z,11.60
2023-02-12T09:54:40.653Z,14.52
2023-02-12T09:57:18.345Z,14.40
2023-02-12T09:59:51.337Z,14.70
2023-02-12T10:02:20.156Z,14.35
2023-02-12T10:05:00.250Z,14.35
2023-02-12T10:07:45.426Z,13.07
2023-02-12T10:10:46.494Z,12.90
2023-02-12T10:13:38.349Z,12.95
2023-02-12T10:16:26.201Z,13.88
2023-02-12T10:19:18.761Z,14.25
2023-02-12T10:21:53.656Z,13.30
2023-02-12T10:24:26.333Z,11.85
2023-02-12T10:27:00.274Z,12.30
2023-02-12T10:29:33.172Z,12.43
2023-02-12T10:32:20.722Z,15.02
2023-02-12T10:34:49.785Z,12.48
2023-02-12T10:37:39.838Z,12.80
2023-02-12T10:40:17.057Z,13.27
2023-02-12T10:42:47.238Z,12.02
2023-02-12T10:45:20.043Z,12.98
2023-02-12T10:47:51.574Z,16.13
2023-02-12T10:50:33.356Z,14.05
2023-02-12T10:53:03.502Z,13.73
2023-02-12T10:55:32.300Z,15.20
2023-02-12T10:58:00.962Z,15.52
2023-02-12T11:00:27.514Z,16.00
2023-02-12T11:03:11.247Z,14.10
2023-02-12T11:05:41.273Z,15.23
2023-02-12T11:08:26.157Z,15.40
2023-02-12T11:10:53.045Z,14.20
2023-02-12T11:13:25.973Z,13.85
2023-02-12T11:15:53.420Z,15.48
2023-02-12T11:18:31.910Z,14.02
2023-02-12T11:21:12.486Z,22.00
2023-02-12T11:23:43.770Z,18.95
2023-02-12T11:26:19.502Z,23.85
2023-02-12T11:29:01.519Z,15.20
2023-02-12T11:31:32.261Z,13.80
2023-02-12T11:34:07.891Z,12.23
2023-02-12T11:36:38.672Z,12.25
2023-02-12T11:39:07.859Z,13.38
2023-02-12T11:41:40.986Z,12.80
2023-02-12T11:44:23.022Z,13.13
2023-02-12T11:46:54.290Z,11.80
2023-02-12T11:49:25.101Z,11.43
2023-02-12T11:51:52.233Z,12.57
2023-02-12T11:54:25.322Z,12.05
2023-02-12T11:56:51.994Z,12.57
2023-02-12T11:59:35.470Z,11.35
2023-02-12T12:02:15.321Z,10.55
2023-02-12T12:04:43.184Z,10.10
2023-02-12T12:07:21.872Z,10.68
2023-02-12T12:10:34.498Z,11.32
2023-02-12T12:13:05.594Z,11.20
2023-02-12T12:15:58.754Z,18.63
2023-02-12T12:18:48.922Z,11.40
2023-02-12T12:21:30.711Z,14.23
2023-02-12T12:24:05.794Z,13.10
2023-02-12T12:29:22.066Z,10.85
2023-02-12T12:31:58.376Z,12.15
2023-02-12T12:34:28.005Z,11.55
2023-02-12T12:37:20.102Z,11.25
2023-02-12T12:40:14.122Z,10.52
2023-02-12T12:43:04.158Z,10.40
2023-02-12T12:46:08.074Z,12.70
2023-02-12T12:48:43.789Z,11.20
2023-02-12T12:51:37.951Z,10.80
2023-02-12T12:54:23.328Z,11.15
2023-02-12T12:59:58.483Z,11.75
2023-02-12T13:02:50.281Z,11.13
2023-02-12T13:06:07.947Z,11.32
2023-02-12T13:09:08.029Z,11.48
2023-02-12T13:11:37.317Z,11.25
2023-02-12T13:14:39.652Z,11.63
2023-02-12T13:17:29.799Z,12.25
2023-02-12T13:20:27.597Z,11.85
2023-02-12T13:23:19.828Z,11.13
2023-02-12T13:25:52.322Z,11.27
2023-02-12T13:28:34.992Z,11.60
2023-02-12T13:31:09.398Z,11.10
2023-02-12T13:33:48.503Z,13.00
2023-02-12T13:36:16.845Z,14.70
2023-02-12T13:38:52.222Z,22.60
2023-02-12T13:41:21.301Z,22.83
2023-02-12T13:44:01.944Z,21.98
2023-02-12T13:46:47.379Z,17.45
2023-02-12T13:51:45.985Z,12.10
2023-02-12T13:54:37.409Z,11.18
2023-02-12T13:57:09.581Z,11.50
2023-02-12T13:59:36.070Z,11.07
2023-02-12T14:02:03.518Z,11.52
2023-02-12T14:04:33.014Z,10.85
2023-02-12T14:07:02.503Z,11.50
2023-02-12T14:09:41.051Z,12.00
2023-02-12T14:12:17.198Z,10.35
2023-02-12T14:14:49.549Z,15.57
2023-02-12T14:17:28.353Z,13.73
2023-02-12T14:20:09.186Z,12.95
2023-02-12T14:22:35.651Z,13.55
2023-02-12T14:25:24.917Z,13.27
2023-02-12T14:28:18.274Z,11.05
2023-02-12T14:30:44.960Z,10.70
2023-02-12T14:33:21.184Z,11.00
2023-02-12T14:35:50.101Z,9.38
2023-02-12T14:38:16.643Z,9.88
2023-02-12T14:40:45.383Z,10.93
2023-02-12T14:43:33.880Z,10.02
2023-02-12T14:46:22.476Z,9.82
2023-02-12T14:48:56.180Z,9.13
2023-02-12T14:51:38.593Z,10.45
2023-02-12T14:54:13.961Z,10.38
2023-02-12T14:56:47.523Z,9.95
2023-02-12T14:59:21.572Z,11.32
2023-02-12T15:01:50.213Z,10.18
2023-02-12T15:04:27.366Z,10.95
2023-02-12T15:07:08.426Z,11.40
2023-02-12T15:10:07.654Z,11.93
2023-02-12T15:12:46.688Z,11.48
2023-02-12T15:15:15.780Z,12.82
2023-02-12T15:17:53.256Z,12.98
2023-02-12T15:20:23.567Z,12.25
2023-02-12T15:22:50.717Z,10.80
2023-02-12T15:25:27.170Z,10.30
2023-02-12T15:28:17.173Z,11.10
2023-02-12T15:30:43.883Z,9.60
2023-02-12T15:33:24.903Z,10.02
2023-02-12T15:35:52.533Z,10.52
2023-02-12T15:38:25.229Z,9.20
2023-02-12T15:40:57.588Z,9.57
2023-02-12T15:43:30.266Z,9.40
2023-02-12T15:45:57.302Z,9.13
2023-02-12T15:48:31.476Z,7.97
2023-02-12T15:51:16.304Z,7.28
2023-02-12T15:53:43.984Z,8.00
2023-02-12T15:56:15.306Z,8.57
2023-02-12T15:58:48.201Z,8.20
2023-02-12T16:01:23.093Z,7.68
2023-02-12T16:03:56.683Z,8.05
2023-02-12T16:06:26.167Z,9.35
2023-02-12T16:09:03.663Z,8.98
2023-02-12T16:11:32.715Z,24.38
2023-02-12T16:14:15.447Z,35.88
2023-02-12T16:16:51.438Z,29.80
2023-02-12T16:19:26.852Z,20.58
2023-02-12T16:22:06.117Z,17.88
2023-02-12T16:24:45.363Z,16.02
2023-02-12T16:27:14.902Z,12.45
2023-02-12T16:29:48.177Z,13.18
2023-02-12T16:32:28.402Z,12.52
2023-02-12T16:35:20.388Z,14.35
2023-02-12T16:37:56.192Z,13.80
2023-02-12T16:40:29.912Z,12.15
2023-02-12T16:42:59.503Z,13.60
2023-02-12T16:45:29.741Z,11.40
2023-02-12T16:48:15.427Z,13.00
2023-02-12T16:50:49.248Z,13.05
2023-02-12T16:53:26.162Z,12.82
2023-02-12T16:55:52.834Z,12.05
2023-02-12T16:58:19.550Z,14.20
2023-02-12T17:00:46.148Z,12.45
2023-02-12T17:03:14.543Z,13.55
2023-02-12T17:05:43.567Z,13.02
2023-02-12T17:08:13.847Z,13.13
2023-02-12T17:10:40.974Z,12.98
2023-02-12T17:13:09.048Z,12.43
2023-02-12T17:15:46.077Z,13.30
2023-02-12T17:18:12.745Z,13.07
2023-02-12T17:20:39.329Z,12.98
2023-02-12T17:23:06.179Z,13.32
2023-02-12T17:25:34.539Z,13.32
2023-02-12T17:28:01.135Z,12.43
2023-02-12T17:30:29.014Z,12.95
2023-02-12T17:32:55.610Z,14.00
2023-02-12T17:35:22.200Z,14.55
2023-02-12T17:37:48.697Z,15.07
2023-02-12T17:40:15.314Z,18.00
2023-02-12T17:42:41.901Z,16.38
2023-02-12T17:45:09.168Z,17.25
2023-02-12T17:47:39.824Z,17.02
2023-02-12T17:50:12.045Z,16.70
2023-02-12T17:52:39.219Z,16.65
2023-02-12T17:55:07.850Z,16.02
2023-02-12T17:57:34.759Z,15.02
2023-02-12T18:00:01.354Z,14.55
2023-02-12T18:02:27.900Z,15.30
2023-02-12T18:04:54.474Z,14.07
2023-02-12T18:07:21.013Z,16.00
2023-02-12T18:09:47.550Z,14.05
2023-02-12T18:12:14.085Z,15.65
2023-02-12T18:14:40.692Z,14.50
2023-02-12T18:17:07.271Z,14.70
2023-02-12T18:19:33.865Z,14.55
2023-02-12T18:22:00.429Z,15.45
2023-02-12T18:24:26.962Z,17.30
2023-02-12T18:26:53.579Z,15.35
2023-02-12T18:29:20.171Z,14.95
2023-02-12T18:31:46.916Z,15.30
2023-02-12T18:34:13.617Z,14.95
2023-02-12T18:36:40.157Z,16.00
2023-02-12T18:39:06.719Z,19.80
2023-02-12T18:41:34.302Z,20.15
2023-02-12T18:44:00.965Z,17.48
2023-02-12T18:46:30.688Z,16.65
2023-02-12T18:48:57.656Z,17.05
2023-02-12T18:51:26.993Z,15.65
2023-02-12T18:53:55.498Z,15.85
2023-02-12T18:56:22.558Z,18.63
2023-02-12T18:58:54.453Z,17.00
2023-02-12T19:01:21.233Z,16.27
2023-02-12T19:03:50.910Z,18.58
2023-02-12T19:06:17.821Z,18.25
2023-02-12T19:08:44.368Z,18.35
2023-02-12T19:11:14.788Z,18.85
2023-02-12T19:13:42.030Z,17.65
2023-02-12T19:16:13.643Z,16.90
2023-02-12T19:18:40.771Z,18.05
2023-02-12T19:21:09.836Z,16.83
2023-02-12T19:23:36.808Z,18.77
2023-02-12T19:26:05.500Z,15.73
2023-02-12T19:28:32.604Z,16.90
2023-02-12T19:31:01.060Z,17.13
2023-02-12T19:33:27.763Z,17.38
2023-02-12T19:35:54.592Z,17.73
2023-02-12T19:38:21.158Z,17.33
2023-02-12T19:40:47.724Z,17.70
2023-02-12T19:43:14.253Z,16.67
2023-02-12T19:45:40.835Z,24.75
2023-02-12T19:48:07.415Z,21.48
2023-02-12T19:50:35.385Z,23.58
2023-02-12T19:53:02.097Z,29.77
2023-02-12T19:55:28.798Z,30.02
2023-02-12T19:57:55.309Z,26.20
2023-02-12T20:00:22.006Z,22.25
2023-02-12T20:02:48.668Z,21.15
2023-02-12T20:05:15.482Z,22.27
2023-02-12T20:07:42.004Z,26.17
2023-02-12T20:10:08.753Z,27.33
2023-02-12T20:12:40.039Z,23.30
2023-02-12T20:15:07.237Z,21.73
2023-02-12T20:17:33.765Z,22.75
2023-02-12T20:20:00.281Z,23.02
2023-02-12T20:22:26.839Z,21.60
2023-02-12T20:24:53.400Z,21.17
2023-02-12T20:27:19.899Z,18.48
2023-02-12T20:29:46.432Z,19.65
2023-02-12T20:32:13.201Z,19.45
2023-02-12T20:34:50.605Z,19.45
2023-02-12T20:37:18.858Z,18.98
2023-02-12T20:39:45.648Z,20.30
2023-02-12T20:42:12.329Z,21.13
2023-02-12T20:44:38.928Z,19.45
2023-02-12T20:47:05.428Z,20.25
2023-02-12T20:49:31.911Z,19.48
2023-02-12T20:51:58.524Z,17.85
2023-02-12T20:54:25.859Z,18.05
2023-02-12T20:56:52.528Z,20.77
2023-02-12T20:59:20.251Z,20.38
2023-02-12T21:01:47.427Z,19.85
2023-02-12T21:04:16.819Z,18.95
2023-02-12T21:06:43.624Z,19.95
2023-02-12T21:09:11.610Z,20.27
2023-02-12T21:11:40.949Z,19.77
2023-02-12T21:14:21.219Z,19.25
2023-02-12T21:16:49.644Z,18.42
2023-02-12T21:19:17.833Z,20.25
2023-02-12T21:21:45.461Z,20.63
2023-02-12T21:24:17.100Z,20.48
2023-02-12T21:26:43.974Z,19.55
2023-02-12T21:29:10.802Z,19.58
2023-02-12T21:31:41.946Z,19.75
2023-02-12T21:34:12.686Z,20.02
2023-02-12T21:36:41.440Z,20.63
2023-02-12T21:39:11.194Z,20.02
2023-02-12T21:41:39.537Z,21.88
2023-02-12T21:44:13.340Z,25.48
2023-02-12T21:46:40.205Z,22.27
2023-02-12T21:49:07.162Z,22.98
2023-02-12T21:51:40.048Z,21.90
2023-02-12T21:54:15.491Z,21.58
2023-02-12T21:56:44.431Z,22.00
2023-02-12T21:59:12.017Z,20.33
2023-02-12T22:01:43.425Z,21.77
2023-02-12T22:04:10.667Z,20.38
2023-02-12T22:06:40.315Z,20.67
2023-02-12T22:09:11.334Z,24.67
2023-02-12T22:11:39.270Z,24.23
2023-02-12T22:14:08.128Z,22.15
2023-02-12T22:16:36.312Z,20.65
2023-02-12T22:19:04.878Z,24.10
2023-02-12T22:21:34.738Z,22.83
2023-02-12T22:24:06.379Z,21.73
2023-02-12T22:26:33.504Z,22.50
2023-02-12T22:29:02.853Z,21.55
2023-02-12T22:31:32.265Z,22.15
2023-02-12T22:34:02.057Z,21.75
2023-02-12T22:36:29.476Z,22.33
2023-02-12T22:39:00.152Z,23.85
2023-02-12T22:41:28.307Z,21.45
2023-02-12T22:43:55.442Z,24.88
2023-02-12T22:46:22.643Z,22.38
2023-02-12T22:48:49.231Z,22.67
2023-02-12T22:51:20.333Z,20.98
2023-02-12T22:53:47.289Z,23.48
2023-02-12T22:56:14.798Z,23.13
2023-02-12T22:58:42.613Z,23.30
2023-02-12T23:01:12.886Z,20.50
2023-02-12T23:03:40.207Z,21.08
2023-02-12T23:06:11.083Z,20.70
2023-02-12T23:08:37.680Z,22.70
2023-02-12T23:11:06.997Z,20.85
2023-02-12T23:13:33.965Z,21.48
2023-02-12T23:16:00.803Z,21.67
2023-02-12T23:18:27.358Z,22.65
2023-02-12T23:20:54.198Z,22.63
2023-02-12T23:23:21.892Z,23.02
2023-02-12T23:25:49.287Z,22.00
2023-02-12T23:28:16.100Z,22.08
2023-02-12T23:30:43.032Z,21.45
2023-02-12T23:33:09.817Z,20.75
2023-02-12T23:35:36.452Z,22.88
2023-02-12T23:38:04.437Z,21.73
2023-02-12T23:40:32.267Z,23.73
2023-02-12T23:42:58.888Z,23.35
2023-02-12T23:45:25.728Z,21.27
2023-02-12T23:47:52.360Z,21.58
2023-02-12T23:50:19.091Z,22.48
2023-02-12T23:52:45.625Z,22.08
2023-02-12T23:55:12.144Z,23.50
2023-02-12T23:57:38.801Z,25.17
